createdAt,value
2017-04-14T00:00:29.572Z,8.00
2017-04-14T00:01:29.565Z,8.00
2017-04-14T00:02:28.798Z,8.00
2017-04-14T00:03:28.321Z,8.10
2017-04-14T00:04:27.561Z,8.00
2017-04-14T00:05:26.771Z,8.00
2017-04-14T00:06:26.016Z,8.00
2017-04-14T00:07:25.261Z,8.00
2017-04-14T00:08:24.492Z,8.00
2017-04-14T00:09:24.122Z,8.00
2017-04-14T00:10:23.371Z,8.00
2017-04-14T00:11:22.585Z,8.00
2017-04-14T00:12:21.801Z,8.00
2017-04-14T00:13:21.025Z,7.90
2017-04-14T00:14:20.249Z,7.90
2017-04-14T00:15:19.828Z,7.90
2017-04-14T00:16:19.076Z,7.90
2017-04-14T00:17:18.384Z,7.90
2017-04-14T00:18:17.604Z,7.90
2017-04-14T00:19:16.836Z,7.90
2017-04-14T00:20:16.081Z,7.90
2017-04-14T00:21:15.629Z,7.90
2017-04-14T00:22:14.860Z,7.80
2017-04-14T00:23:14.278Z,7.80
2017-04-14T00:24:13.537Z,7.90
2017-04-14T00:25:12.749Z,7.80
2017-04-14T00:26:11.969Z,7.80
2017-04-14T00:27:11.469Z,7.80
2017-04-14T00:28:11.437Z,7.80
2017-04-14T00:29:10.663Z,7.90
2017-04-14T00:30:09.896Z,7.80
2017-04-14T00:31:09.121Z,7.80
2017-04-14T00:32:08.354Z,7.90
2017-04-14T00:33:07.856Z,7.80
2017-04-14T00:34:07.088Z,7.90
2017-04-14T00:35:06.313Z,7.80
2017-04-14T00:36:05.534Z,7.90
2017-04-14T00:37:04.772Z,7.80
2017-04-14T00:38:04.021Z,7.90
2017-04-14T00:39:03.664Z,7.90
2017-04-14T00:40:02.873Z,7.90
2017-04-14T00:41:02.108Z,7.90
2017-04-14T00:42:01.321Z,7.90
2017-04-14T00:43:00.537Z,7.90
2017-04-14T00:43:59.761Z,7.90
2017-04-14T00:44:59.372Z,7.90
2017-04-14T00:45:58.592Z,7.90
2017-04-14T00:46:57.817Z,7.90
2017-04-14T00:47:57.128Z,7.90
2017-04-14T00:48:56.351Z,7.90
2017-04-14T00:49:55.569Z,7.90
2017-04-14T00:50:55.178Z,7.80
2017-04-14T00:51:54.390Z,7.80
2017-04-14T00:52:53.601Z,7.80
2017-04-14T00:53:52.808Z,7.80
2017-04-14T00:55:57.840Z,7.80
2017-04-14T00:56:57.064Z,7.80
2017-04-14T00:57:56.276Z,7.90
2017-04-14T00:58:55.526Z,7.90
2017-04-14T00:59:54.736Z,7.90
2017-04-14T01:00:53.981Z,7.90
2017-04-14T01:01:53.582Z,7.80
2017-04-14T01:02:52.793Z,7.80
2017-04-14T01:03:52.076Z,7.80
2017-04-14T01:04:51.308Z,7.70
2017-04-14T01:05:50.528Z,7.70
2017-04-14T01:06:49.754Z,7.70
2017-04-14T01:07:50.069Z,7.70
2017-04-14T01:08:49.338Z,7.60
2017-04-14T01:09:48.541Z,7.70
2017-04-14T01:10:47.757Z,7.70
2017-04-14T01:11:46.992Z,7.60
2017-04-14T01:12:46.236Z,7.60
2017-04-14T01:13:45.776Z,7.60
2017-04-14T01:14:45.004Z,7.60
2017-04-14T01:15:44.517Z,7.50
2017-04-14T01:16:43.728Z,7.50
2017-04-14T01:17:42.946Z,7.50
2017-04-14T01:18:42.897Z,7.40
2017-04-14T01:19:42.497Z,7.40
2017-04-14T01:20:41.713Z,7.40
2017-04-14T01:21:40.945Z,7.30
2017-04-14T01:22:40.905Z,7.20
2017-04-14T01:23:40.112Z,7.30
2017-04-14T01:24:39.380Z,7.30
2017-04-14T01:25:38.908Z,7.30
2017-04-14T01:26:38.173Z,7.30
2017-04-14T01:27:37.392Z,7.20
2017-04-14T01:28:36.619Z,7.10
2017-04-14T01:29:35.865Z,7.10
2017-04-14T01:30:35.089Z,7.10
2017-04-14T01:31:34.617Z,7.00
2017-04-14T01:32:33.978Z,7.00
2017-04-14T01:33:33.196Z,7.00
2017-04-14T01:34:32.703Z,7.00
2017-04-14T01:35:31.929Z,7.00
2017-04-14T01:36:31.188Z,6.90
2017-04-14T01:37:30.735Z,6.90
2017-04-14T01:38:29.957Z,6.90
2017-04-14T01:39:29.187Z,6.90
2017-04-14T01:40:28.413Z,6.90
2017-04-14T01:41:27.624Z,6.90
2017-04-14T01:42:26.876Z,6.90
2017-04-14T01:43:26.436Z,6.90
2017-04-14T01:44:25.677Z,7.00
2017-04-14T01:45:24.920Z,6.90
2017-04-14T01:46:24.148Z,6.90
2017-04-14T01:47:23.815Z,6.90
2017-04-14T01:48:23.085Z,6.90
2017-04-14T01:49:22.687Z,6.90
2017-04-14T01:50:21.912Z,6.90
2017-04-14T01:51:21.122Z,6.90
2017-04-14T01:52:20.339Z,6.90
2017-04-14T01:53:19.556Z,6.90
2017-04-14T01:54:18.785Z,6.90
2017-04-14T01:55:19.069Z,6.80
2017-04-14T01:56:18.287Z,6.80
2017-04-14T01:57:17.514Z,6.80
2017-04-14T01:58:16.744Z,6.80
2017-04-14T01:59:15.954Z,6.80
2017-04-14T02:00:15.207Z,6.80
2017-04-14T02:01:14.773Z,6.70
2017-04-14T02:02:13.998Z,6.70
2017-04-14T02:03:13.244Z,6.70
2017-04-14T02:04:12.474Z,6.70
2017-04-14T02:05:12.016Z,6.60
2017-04-14T02:06:11.228Z,6.60
2017-04-14T02:07:10.775Z,6.50
2017-04-14T02:08:10.732Z,6.50
2017-04-14T02:09:09.949Z,6.50
2017-04-14T02:10:09.923Z,6.40
2017-04-14T02:11:09.192Z,6.40
2017-04-14T02:12:08.414Z,6.40
2017-04-14T02:13:08.021Z,6.40
2017-04-14T02:14:07.240Z,6.40
2017-04-14T02:15:06.484Z,6.40
2017-04-14T02:16:05.723Z,6.40
2017-04-14T02:17:04.948Z,6.40
2017-04-14T02:18:04.217Z,6.30
2017-04-14T02:19:04.542Z,6.30
2017-04-14T02:20:03.788Z,6.30
2017-04-14T02:21:03.019Z,6.30
2017-04-14T02:22:02.252Z,6.20
2017-04-14T02:23:01.480Z,6.20
2017-04-14T02:24:00.709Z,6.20
2017-04-14T02:25:00.240Z,6.20
2017-04-14T02:26:00.196Z,6.10
2017-04-14T02:26:59.412Z,6.10
2017-04-14T02:27:58.640Z,6.20
2017-04-14T02:28:57.852Z,6.20
2017-04-14T02:29:57.066Z,6.20
2017-04-14T02:30:56.668Z,6.20
2017-04-14T02:31:55.916Z,6.20
2017-04-14T02:32:55.265Z,6.10
2017-04-14T02:33:54.560Z,6.10
2017-04-14T02:34:53.780Z,6.10
2017-04-14T02:35:53.000Z,6.10
2017-04-14T02:36:51.732Z,6.10
2017-04-14T02:37:50.989Z,6.10
2017-04-14T02:38:50.227Z,6.10
2017-04-14T02:39:49.453Z,6.10
2017-04-14T02:40:48.683Z,6.10
2017-04-14T02:41:47.899Z,6.00
2017-04-14T02:42:47.460Z,6.00
2017-04-14T02:43:46.700Z,6.00
2017-04-14T02:44:45.908Z,6.00
2017-04-14T02:45:45.150Z,6.00
2017-04-14T02:46:44.385Z,5.90
2017-04-14T02:47:43.621Z,5.90
2017-04-14T02:48:43.165Z,5.90
2017-04-14T02:49:42.390Z,5.90
2017-04-14T02:50:41.613Z,5.80
2017-04-14T02:51:40.828Z,5.90
2017-04-14T02:52:40.041Z,5.90
2017-04-14T02:53:39.257Z,5.80
2017-04-14T02:54:38.764Z,5.90
2017-04-14T02:55:37.996Z,5.80
2017-04-14T02:56:37.225Z,5.80
2017-04-14T02:57:37.185Z,5.70
2017-04-14T02:58:35.632Z,5.80
2017-04-14T02:59:34.844Z,5.80
2017-04-14T03:00:34.356Z,5.80
2017-04-14T03:01:33.576Z,5.80
2017-04-14T03:02:32.789Z,5.80
2017-04-14T03:03:32.032Z,5.80
2017-04-14T03:04:31.585Z,5.80
2017-04-14T03:05:30.814Z,5.80
2017-04-14T03:06:30.415Z,5.80
2017-04-14T03:07:29.640Z,5.80
2017-04-14T03:08:28.865Z,5.80
2017-04-14T03:09:28.184Z,5.80
2017-04-14T03:10:27.446Z,5.80
2017-04-14T03:11:26.717Z,5.80
2017-04-14T03:12:26.205Z,5.80
2017-04-14T03:13:25.517Z,5.80
2017-04-14T03:14:24.890Z,5.70
2017-04-14T03:15:24.104Z,5.70
2017-04-14T03:16:23.324Z,5.70
2017-04-14T03:17:22.550Z,5.70
2017-04-14T03:18:22.049Z,5.70
2017-04-14T03:19:21.278Z,5.70
2017-04-14T03:20:20.489Z,5.60
2017-04-14T03:21:19.700Z,5.60
2017-04-14T03:22:18.929Z,5.60
2017-04-14T03:23:18.140Z,5.60
2017-04-14T03:24:17.688Z,5.60
2017-04-14T03:25:16.896Z,5.60
2017-04-14T03:26:16.116Z,5.60
2017-04-14T03:27:15.352Z,5.60
2017-04-14T03:28:14.581Z,5.60
2017-04-14T03:29:13.793Z,5.50
2017-04-14T03:30:13.333Z,5.50
2017-04-14T03:31:12.576Z,5.50
2017-04-14T03:32:11.796Z,5.50
2017-04-14T03:33:11.000Z,5.50
2017-04-14T03:34:10.245Z,5.50
2017-04-14T03:35:10.208Z,5.40
2017-04-14T03:36:09.813Z,5.40
2017-04-14T03:37:09.036Z,5.40
2017-04-14T03:38:08.244Z,5.40
2017-04-14T03:39:07.468Z,5.50
2017-04-14T03:40:06.696Z,5.40
2017-04-14T03:41:05.918Z,5.40
2017-04-14T03:42:05.428Z,5.40
2017-04-14T03:43:04.664Z,5.40
2017-04-14T03:44:03.886Z,5.40
2017-04-14T03:45:03.188Z,5.40
2017-04-14T03:46:03.156Z,5.30
2017-04-14T03:47:03.121Z,5.30
2017-04-14T03:48:02.659Z,5.40
2017-04-14T03:49:01.932Z,5.40
2017-04-14T03:50:01.160Z,5.30
2017-04-14T03:51:00.396Z,5.30
2017-04-14T03:51:59.640Z,5.30
2017-04-14T03:52:58.870Z,5.30
2017-04-14T03:53:58.452Z,5.30
2017-04-14T03:54:57.709Z,5.30
2017-04-14T03:55:56.928Z,5.30
2017-04-14T03:56:56.172Z,5.20
2017-04-14T03:57:55.426Z,5.20
2017-04-14T03:58:54.659Z,5.20
2017-04-14T03:59:54.261Z,5.20
2017-04-14T04:00:53.489Z,5.20
2017-04-14T04:01:52.762Z,5.10
2017-04-14T04:02:52.000Z,5.10
2017-04-14T04:03:51.241Z,5.10
2017-04-14T04:04:50.480Z,5.20
2017-04-14T04:05:49.993Z,5.10
2017-04-14T04:06:49.220Z,5.20
2017-04-14T04:07:48.444Z,5.20
2017-04-14T04:08:47.665Z,5.10
2017-04-14T04:09:46.881Z,5.10
2017-04-14T04:10:46.096Z,5.10
2017-04-14T04:11:45.944Z,5.10
2017-04-14T04:12:45.184Z,5.10
2017-04-14T04:13:44.406Z,5.10
2017-04-14T04:14:43.625Z,5.10
2017-04-14T04:15:42.847Z,5.10
2017-04-14T04:16:42.947Z,5.10
2017-04-14T04:17:42.489Z,5.00
2017-04-14T04:18:41.709Z,5.00
2017-04-14T04:19:40.920Z,5.00
2017-04-14T04:20:40.158Z,4.90
2017-04-14T04:21:39.396Z,4.90
2017-04-14T04:22:38.626Z,4.90
2017-04-14T04:23:38.201Z,4.90
2017-04-14T04:24:37.425Z,4.90
2017-04-14T04:25:36.660Z,4.90
2017-04-14T04:26:35.869Z,4.90
2017-04-14T04:27:35.109Z,4.90
2017-04-14T04:28:34.324Z,4.90
2017-04-14T04:29:34.073Z,4.90
2017-04-14T04:30:33.303Z,4.90
2017-04-14T04:31:36.748Z,4.90
2017-04-14T04:32:41.402Z,4.90
2017-04-14T04:33:46.020Z,4.90
2017-04-14T04:34:45.552Z,4.90
2017-04-14T04:35:44.779Z,5.00
2017-04-14T04:36:43.996Z,5.00
2017-04-14T04:37:43.220Z,5.00
2017-04-14T04:38:42.436Z,5.00
2017-04-14T04:39:42.451Z,5.00
2017-04-14T04:40:42.041Z,5.00
2017-04-14T04:41:41.268Z,5.00
2017-04-14T04:42:40.548Z,5.00
2017-04-14T04:43:40.500Z,4.90
2017-04-14T04:44:39.729Z,5.00
2017-04-14T04:45:38.956Z,5.00
2017-04-14T04:46:39.356Z,5.00
2017-04-14T04:47:38.569Z,5.00
2017-04-14T04:48:37.793Z,5.00
2017-04-14T04:49:37.064Z,5.00
2017-04-14T04:50:36.295Z,5.10
2017-04-14T04:51:35.513Z,5.10
2017-04-14T04:52:35.048Z,5.10
2017-04-14T04:53:34.276Z,5.10
2017-04-14T04:54:33.497Z,5.10
2017-04-14T04:55:32.732Z,5.10
2017-04-14T04:56:31.960Z,5.10
2017-04-14T04:57:31.183Z,5.10
2017-04-14T04:58:30.692Z,5.10
2017-04-14T04:59:29.925Z,5.10
2017-04-14T05:00:29.157Z,5.10
2017-04-14T05:01:28.376Z,5.10
2017-04-14T05:02:27.597Z,5.20
2017-04-14T05:03:26.812Z,5.20
2017-04-14T05:04:26.450Z,5.20
2017-04-14T05:05:25.672Z,5.20
2017-04-14T05:06:24.876Z,5.30
2017-04-14T05:07:24.107Z,5.30
2017-04-14T05:08:23.361Z,5.30
2017-04-14T05:09:22.576Z,5.40
2017-04-14T05:10:22.080Z,5.40
2017-04-14T05:11:21.308Z,5.50
2017-04-14T05:12:20.535Z,5.50
2017-04-14T05:13:19.757Z,5.60
2017-04-14T05:14:18.976Z,5.70
2017-04-14T05:15:18.194Z,5.70
2017-04-14T05:16:17.774Z,5.80
2017-04-14T05:17:16.980Z,5.90
2017-04-14T05:18:16.230Z,6.00
2017-04-14T05:19:15.448Z,6.00
2017-04-14T05:20:14.676Z,6.10
2017-04-14T05:21:13.912Z,6.10
2017-04-14T05:22:12.743Z,6.10
2017-04-14T05:23:11.949Z,6.20
2017-04-14T05:24:11.161Z,6.30
2017-04-14T05:25:10.389Z,6.30
2017-04-14T05:26:09.612Z,6.30
2017-04-14T05:27:08.821Z,6.30
2017-04-14T05:28:08.342Z,6.30
2017-04-14T05:29:07.561Z,6.40
2017-04-14T05:30:06.776Z,6.40
2017-04-14T05:31:05.984Z,6.40
2017-04-14T05:32:05.192Z,6.40
2017-04-14T05:33:04.404Z,6.50
2017-04-14T05:34:03.916Z,6.60
2017-04-14T05:35:03.122Z,6.60
2017-04-14T05:36:02.332Z,6.70
2017-04-14T05:37:01.537Z,6.70
2017-04-14T05:38:00.780Z,6.70
2017-04-14T05:39:00.009Z,6.80
2017-04-14T05:39:59.544Z,6.80
2017-04-14T05:40:58.765Z,6.80
2017-04-14T05:41:58.000Z,6.80
2017-04-14T05:42:57.217Z,6.80
2017-04-14T05:43:56.440Z,6.80
2017-04-14T05:44:55.672Z,6.90
2017-04-14T05:45:55.184Z,6.90
2017-04-14T05:46:54.516Z,7.00
2017-04-14T05:47:53.737Z,6.90
2017-04-14T05:48:52.977Z,6.90
2017-04-14T05:49:52.308Z,7.00
2017-04-14T05:50:51.520Z,7.20
2017-04-14T05:51:51.197Z,7.20
2017-04-14T05:52:50.420Z,7.20
2017-04-14T05:53:49.640Z,7.10
2017-04-14T05:54:48.887Z,7.10
2017-04-14T05:55:48.125Z,7.00
2017-04-14T05:56:47.837Z,7.10
2017-04-14T05:57:47.337Z,7.10
2017-04-14T05:58:46.552Z,7.10
2017-04-14T05:59:47.476Z,7.10
2017-04-14T06:00:46.701Z,7.00
2017-04-14T06:01:45.912Z,7.00
2017-04-14T06:02:45.780Z,7.00
2017-04-14T06:03:45.345Z,7.10
2017-04-14T06:04:44.557Z,7.10
2017-04-14T06:05:44.982Z,7.10
2017-04-14T06:06:44.313Z,6.90
2017-04-14T06:07:43.583Z,6.90
2017-04-14T06:08:42.967Z,6.90
2017-04-14T06:09:42.792Z,6.90
2017-04-14T06:10:42.064Z,6.90
2017-04-14T06:11:41.273Z,6.80
2017-04-14T06:12:40.536Z,6.80
2017-04-14T06:13:41.200Z,6.80
2017-04-14T06:14:40.488Z,6.90
2017-04-14T06:15:40.233Z,6.90
2017-04-14T06:16:39.465Z,7.00
2017-04-14T06:17:38.681Z,7.00
2017-04-14T06:18:37.905Z,7.00
2017-04-14T06:19:37.137Z,7.00
2017-04-14T06:20:36.369Z,7.10
2017-04-14T06:21:36.019Z,7.40
2017-04-14T06:22:35.364Z,7.50
2017-04-14T06:23:34.668Z,7.70
2017-04-14T06:24:33.901Z,7.80
2017-04-14T06:25:33.001Z,7.70
2017-04-14T06:26:32.216Z,7.80
2017-04-14T06:27:31.749Z,7.90
2017-04-14T06:28:31.019Z,7.90
2017-04-14T06:29:30.365Z,7.90
2017-04-14T06:30:29.739Z,7.90
2017-04-14T06:31:29.028Z,7.90
2017-04-14T06:32:28.263Z,7.90
2017-04-14T06:33:27.865Z,8.10
2017-04-14T06:34:27.093Z,8.10
2017-04-14T06:35:26.350Z,8.20
2017-04-14T06:36:25.629Z,8.30
2017-04-14T06:37:24.838Z,8.50
2017-04-14T06:38:24.062Z,8.50
2017-04-14T06:39:23.665Z,8.60
2017-04-14T06:40:22.906Z,8.40
2017-04-14T06:41:22.125Z,8.30
2017-04-14T06:42:21.353Z,8.40
2017-04-14T06:43:21.370Z,8.40
2017-04-14T06:44:20.597Z,8.70
2017-04-14T06:45:20.183Z,9.20
2017-04-14T06:46:19.408Z,9.50
2017-04-14T06:47:18.677Z,9.70
2017-04-14T06:48:18.646Z,9.80
2017-04-14T06:49:17.897Z,10.20
2017-04-14T06:50:17.144Z,10.30
2017-04-14T06:51:16.729Z,10.30
2017-04-14T06:52:15.976Z,10.30
2017-04-14T06:53:14.449Z,10.30
2017-04-14T06:54:13.663Z,10.70
2017-04-14T06:55:13.214Z,11.00
2017-04-14T06:56:12.439Z,11.30
2017-04-14T06:57:11.985Z,11.70
2017-04-14T06:58:11.661Z,11.80
2017-04-14T06:59:11.278Z,11.90
2017-04-14T07:00:10.544Z,12.30
2017-04-14T07:01:10.766Z,12.60
2017-04-14T07:02:10.110Z,12.70
2017-04-14T07:03:09.748Z,13.00
2017-04-14T07:04:09.354Z,13.20
2017-04-14T07:05:08.625Z,13.00
2017-04-14T07:06:07.860Z,12.80
2017-04-14T07:07:07.459Z,12.90
2017-04-14T07:08:06.680Z,13.00
2017-04-14T07:09:06.904Z,12.90
2017-04-14T07:10:06.212Z,12.90
2017-04-14T07:11:05.448Z,13.00
2017-04-14T07:12:04.668Z,13.00
2017-04-14T07:13:03.949Z,12.50
2017-04-14T07:14:03.157Z,12.50
2017-04-14T07:15:02.792Z,12.40
2017-04-14T07:16:02.012Z,12.60
2017-04-14T07:17:01.249Z,13.00
2017-04-14T07:18:00.468Z,13.20
2017-04-14T07:18:59.697Z,13.00
2017-04-14T07:19:58.933Z,13.00
2017-04-14T07:20:58.495Z,12.80
2017-04-14T07:21:57.740Z,12.60
2017-04-14T07:22:56.988Z,12.60
2017-04-14T07:23:56.258Z,12.80
2017-04-14T07:24:55.488Z,12.80
2017-04-14T07:25:54.745Z,12.80
2017-04-14T07:26:54.333Z,12.60
2017-04-14T07:27:54.178Z,12.60
2017-04-14T07:28:53.405Z,12.40
2017-04-14T07:29:52.617Z,12.20
2017-04-14T07:30:51.884Z,12.20
2017-04-14T07:31:51.108Z,12.40
2017-04-14T07:32:50.621Z,12.40
2017-04-14T07:33:49.849Z,12.30
2017-04-14T07:34:49.060Z,11.90
2017-04-14T07:35:48.328Z,11.60
2017-04-14T07:36:47.556Z,11.40
2017-04-14T07:37:46.785Z,11.30
2017-04-14T07:38:46.334Z,11.10
2017-04-14T07:39:45.580Z,10.70
2017-04-14T07:40:44.817Z,10.60
2017-04-14T07:41:44.042Z,10.50
2017-04-14T07:42:43.564Z,10.30
2017-04-14T07:43:42.776Z,10.20
2017-04-14T07:44:42.296Z,10.20
2017-04-14T07:45:41.551Z,10.20
2017-04-14T07:46:40.786Z,10.30
2017-04-14T07:47:40.013Z,10.30
2017-04-14T07:48:39.234Z,10.30
2017-04-14T07:49:38.516Z,10.30
2017-04-14T07:50:38.136Z,10.20
2017-04-14T07:51:37.352Z,10.20
2017-04-14T07:52:36.560Z,10.30
2017-04-14T07:53:35.778Z,10.40
2017-04-14T07:54:34.998Z,10.60
2017-04-14T07:55:34.244Z,10.60
2017-04-14T07:56:33.840Z,10.70
2017-04-14T07:57:32.300Z,10.70
2017-04-14T07:58:31.519Z,11.80
2017-04-14T07:59:31.503Z,12.30
2017-04-14T08:00:30.724Z,12.70
2017-04-14T08:01:29.937Z,13.00
2017-04-14T08:02:29.542Z,12.70
2017-04-14T08:03:28.774Z,12.40
2017-04-14T08:04:28.260Z,11.80
2017-04-14T08:05:27.489Z,11.30
2017-04-14T08:06:25.947Z,11.20
2017-04-14T08:07:26.158Z,11.00
2017-04-14T08:08:25.761Z,10.80
2017-04-14T08:09:24.212Z,10.80
2017-04-14T08:10:23.425Z,10.40
2017-04-14T08:11:30.077Z,10.30
2017-04-14T08:12:29.479Z,10.10
2017-04-14T08:13:29.241Z,9.90
2017-04-14T08:14:28.459Z,9.60
2017-04-14T08:15:30.741Z,9.40
2017-04-14T08:16:30.900Z,9.40
2017-04-14T08:17:30.134Z,9.40
2017-04-14T08:18:29.709Z,9.60
2017-04-14T08:19:29.032Z,10.00
2017-04-14T08:20:28.418Z,10.30
2017-04-14T08:21:27.713Z,10.50
2017-04-14T08:22:27.891Z,10.60
2017-04-14T08:23:27.125Z,10.70
2017-04-14T08:24:27.415Z,10.70
2017-04-14T08:25:26.625Z,10.90
2017-04-14T08:26:25.905Z,10.80
2017-04-14T08:27:25.125Z,10.70
2017-04-14T08:28:24.345Z,10.50
2017-04-14T08:29:23.601Z,10.40
2017-04-14T08:30:23.199Z,10.20
2017-04-14T08:31:22.424Z,10.30
2017-04-14T08:32:22.380Z,10.50
2017-04-14T08:33:21.592Z,10.60
2017-04-14T08:34:20.810Z,10.50
2017-04-14T08:35:20.033Z,10.50
2017-04-14T08:36:19.951Z,10.60
2017-04-14T08:37:19.156Z,10.70
2017-04-14T08:38:18.381Z,11.10
2017-04-14T08:39:17.624Z,11.40
2017-04-14T08:40:17.880Z,11.30
2017-04-14T08:41:17.105Z,11.70
2017-04-14T08:42:17.384Z,11.80
2017-04-14T08:43:16.621Z,12.20
2017-04-14T08:44:15.960Z,12.40
2017-04-14T08:45:15.204Z,12.50
2017-04-14T08:46:14.511Z,12.50
2017-04-14T08:47:14.492Z,11.90
2017-04-14T08:48:14.126Z,11.60
2017-04-14T08:49:13.405Z,11.50
2017-04-14T08:50:12.668Z,11.20
2017-04-14T08:51:11.976Z,11.00
2017-04-14T08:52:11.205Z,11.30
2017-04-14T08:53:10.437Z,11.60
2017-04-14T08:54:10.027Z,12.20
2017-04-14T08:55:09.238Z,12.80
2017-04-14T08:56:07.752Z,12.70
2017-04-14T08:57:06.997Z,13.40
2017-04-14T08:58:06.257Z,13.50
2017-04-14T08:59:05.508Z,13.40
2017-04-14T09:00:05.104Z,13.30
2017-04-14T09:01:04.399Z,12.90
2017-04-14T09:02:03.649Z,12.80
2017-04-14T09:03:02.891Z,12.10
2017-04-14T09:04:02.109Z,11.80
2017-04-14T09:05:01.328Z,11.40
2017-04-14T09:06:00.913Z,11.30
2017-04-14T09:07:00.137Z,11.00
2017-04-14T09:07:59.450Z,10.80
2017-04-14T09:08:58.664Z,10.80
2017-04-14T09:09:57.899Z,11.20
2017-04-14T09:10:57.134Z,11.70
2017-04-14T09:11:56.653Z,11.90
2017-04-14T09:12:55.893Z,12.30
2017-04-14T09:13:55.122Z,12.80
2017-04-14T09:14:54.429Z,13.50
2017-04-14T09:15:54.104Z,13.20
2017-04-14T09:16:53.341Z,13.10
2017-04-14T09:17:52.944Z,12.50
2017-04-14T09:18:52.165Z,12.20
2017-04-14T09:19:51.387Z,11.90
2017-04-14T09:20:51.364Z,11.50
2017-04-14T09:21:50.587Z,11.40
2017-04-14T09:22:49.849Z,11.20
2017-04-14T09:23:49.456Z,11.10
2017-04-14T09:24:48.695Z,11.10
2017-04-14T09:25:47.992Z,11.00
2017-04-14T09:26:47.213Z,11.10
2017-04-14T09:27:46.482Z,11.20
2017-04-14T09:28:45.743Z,11.50
2017-04-14T09:29:45.470Z,11.80
2017-04-14T09:30:44.756Z,12.10
2017-04-14T09:31:43.988Z,12.20
2017-04-14T09:32:43.225Z,11.70
2017-04-14T09:33:42.468Z,11.50
2017-04-14T09:34:41.677Z,11.60
2017-04-14T09:35:41.482Z,11.80
2017-04-14T09:36:40.737Z,11.90
2017-04-14T09:37:39.965Z,11.90
2017-04-14T09:38:39.184Z,11.90
2017-04-14T09:39:38.445Z,12.00
2017-04-14T09:40:37.720Z,11.90
2017-04-14T09:41:37.380Z,11.80
2017-04-14T09:42:36.640Z,11.60
2017-04-14T09:43:35.899Z,11.40
2017-04-14T09:44:35.638Z,11.50
2017-04-14T09:45:34.869Z,11.80
2017-04-14T09:46:34.149Z,12.40
2017-04-14T09:47:33.805Z,12.80
2017-04-14T09:48:33.070Z,13.50
2017-04-14T09:49:32.369Z,14.10
2017-04-14T09:50:31.590Z,14.60
2017-04-14T09:51:30.864Z,15.00
2017-04-14T09:52:30.130Z,14.80
2017-04-14T09:53:29.650Z,14.30
2017-04-14T09:54:28.872Z,14.30
2017-04-14T09:55:28.145Z,13.90
2017-04-14T09:56:27.384Z,13.70
2017-04-14T09:57:26.630Z,13.40
2017-04-14T09:58:26.666Z,13.10
2017-04-14T09:59:26.175Z,12.70
2017-04-14T10:00:25.435Z,12.50
2017-04-14T10:01:24.673Z,12.50
2017-04-14T10:02:23.977Z,12.60
2017-04-14T10:03:23.204Z,12.90
2017-04-14T10:04:21.680Z,12.80
2017-04-14T10:05:21.233Z,13.40
2017-04-14T10:06:20.500Z,13.80
2017-04-14T10:07:19.728Z,14.10
2017-04-14T10:08:19.242Z,14.40
2017-04-14T10:09:18.481Z,14.90
2017-04-14T10:10:17.700Z,15.20
2017-04-14T10:11:17.239Z,15.70
2017-04-14T10:12:16.477Z,15.70
2017-04-14T10:13:15.701Z,15.50
2017-04-14T10:14:14.926Z,15.40
2017-04-14T10:15:14.149Z,15.00
2017-04-14T10:16:13.382Z,14.40
2017-04-14T10:17:12.901Z,14.10
2017-04-14T10:18:12.154Z,14.00
2017-04-14T10:19:11.397Z,14.10
2017-04-14T10:20:10.619Z,14.10
2017-04-14T10:21:09.868Z,14.60
2017-04-14T10:22:09.090Z,14.90
2017-04-14T10:23:08.636Z,15.40
2017-04-14T10:24:07.890Z,15.70
2017-04-14T10:25:06.381Z,15.70
2017-04-14T10:26:05.617Z,15.70
2017-04-14T10:27:04.860Z,15.80
2017-04-14T10:28:04.142Z,15.60
2017-04-14T10:29:03.730Z,15.20
2017-04-14T10:30:02.967Z,14.70
2017-04-14T10:31:02.469Z,14.60
2017-04-14T10:32:01.731Z,14.50
2017-04-14T10:33:00.994Z,14.40
2017-04-14T10:34:00.973Z,14.40
2017-04-14T10:35:00.557Z,14.70
2017-04-14T10:35:59.806Z,15.00
2017-04-14T10:36:59.805Z,15.10
2017-04-14T10:37:59.079Z,15.40
2017-04-14T10:38:58.380Z,15.20
2017-04-14T10:39:57.656Z,14.80
2017-04-14T10:40:56.446Z,14.70
2017-04-14T10:41:55.725Z,14.00
2017-04-14T10:42:54.967Z,14.20
2017-04-14T10:43:54.952Z,14.50
2017-04-14T10:44:54.213Z,14.90
2017-04-14T10:45:54.215Z,15.30
2017-04-14T10:46:53.727Z,15.30
2017-04-14T10:47:53.002Z,15.70
2017-04-14T10:48:52.245Z,15.50
2017-04-14T10:49:51.484Z,15.70
2017-04-14T10:50:50.721Z,16.00
2017-04-14T10:51:50.013Z,16.50
2017-04-14T10:52:49.549Z,16.70
2017-04-14T10:53:48.800Z,16.80
2017-04-14T10:54:48.020Z,16.90
2017-04-14T10:55:47.309Z,16.50
2017-04-14T10:56:46.533Z,16.10
2017-04-14T10:57:45.768Z,15.30
2017-04-14T10:58:45.269Z,14.70
2017-04-14T10:59:44.503Z,14.50
2017-04-14T11:00:43.743Z,14.50
2017-04-14T11:01:42.972Z,14.30
2017-04-14T11:02:42.209Z,13.40
2017-04-14T11:03:41.460Z,13.30
2017-04-14T11:04:41.028Z,13.40
2017-04-14T11:05:40.488Z,13.30
2017-04-14T11:06:39.721Z,13.40
2017-04-14T11:07:38.957Z,13.50
2017-04-14T11:08:38.183Z,13.70
2017-04-14T11:09:37.449Z,14.20
2017-04-14T11:10:37.032Z,14.70
2017-04-14T11:11:36.261Z,14.80
2017-04-14T11:12:35.480Z,14.90
2017-04-14T11:13:34.708Z,15.00
2017-04-14T11:14:33.932Z,14.90
2017-04-14T11:15:33.160Z,14.80
2017-04-14T11:16:32.828Z,14.60
2017-04-14T11:17:32.057Z,14.70
2017-04-14T11:18:31.281Z,14.60
2017-04-14T11:19:30.507Z,14.70
2017-04-14T11:20:29.726Z,14.50
2017-04-14T11:21:28.960Z,14.30
2017-04-14T11:22:28.464Z,14.30
2017-04-14T11:23:27.731Z,13.70
2017-04-14T11:24:26.946Z,13.40
2017-04-14T11:25:26.168Z,13.30
2017-04-14T11:26:25.405Z,13.20
2017-04-14T11:27:24.632Z,13.20
2017-04-14T11:28:24.133Z,13.30
2017-04-14T11:29:24.088Z,13.50
2017-04-14T11:30:23.313Z,13.80
2017-04-14T11:31:22.533Z,13.80
2017-04-14T11:32:22.537Z,13.70
2017-04-14T11:33:21.762Z,13.70
2017-04-14T11:34:21.381Z,13.70
2017-04-14T11:35:20.597Z,13.70
2017-04-14T11:36:19.827Z,13.90
2017-04-14T11:37:19.048Z,13.90
2017-04-14T11:38:19.017Z,13.80
2017-04-14T11:39:18.304Z,13.90
2017-04-14T11:40:17.813Z,13.80
2017-04-14T11:41:17.029Z,13.80
2017-04-14T11:42:16.273Z,13.90
2017-04-14T11:43:15.481Z,13.60
2017-04-14T11:44:14.692Z,13.40
2017-04-14T11:45:13.917Z,13.30
2017-04-14T11:46:13.508Z,13.20
2017-04-14T11:47:12.718Z,12.90
2017-04-14T11:48:11.928Z,12.90
2017-04-14T11:49:11.168Z,13.00
2017-04-14T11:50:10.623Z,13.00
2017-04-14T11:51:09.836Z,12.80
2017-04-14T11:52:09.460Z,12.70
2017-04-14T11:53:08.785Z,12.70
2017-04-14T11:54:08.080Z,12.70
2017-04-14T11:55:07.369Z,12.80
2017-04-14T11:56:06.672Z,12.90
2017-04-14T11:57:05.944Z,12.90
2017-04-14T11:58:05.652Z,12.90
2017-04-14T11:59:04.943Z,13.00
2017-04-14T12:00:04.269Z,12.90
2017-04-14T12:01:03.530Z,12.80
2017-04-14T12:02:02.768Z,12.90
2017-04-14T12:03:02.048Z,13.10
2017-04-14T12:04:01.585Z,13.30
2017-04-14T12:05:00.805Z,13.40
2017-04-14T12:06:00.060Z,13.50
2017-04-14T12:06:59.281Z,13.50
2017-04-14T12:07:58.515Z,13.90
2017-04-14T12:08:57.753Z,14.10
2017-04-14T12:09:56.621Z,14.00
2017-04-14T12:10:55.890Z,14.00
2017-04-14T12:11:55.140Z,13.90
2017-04-14T12:12:54.418Z,13.90
2017-04-14T12:13:53.640Z,13.70
2017-04-14T12:14:52.910Z,13.70
2017-04-14T12:15:52.528Z,13.80
2017-04-14T12:16:51.753Z,13.90
2017-04-14T12:17:51.012Z,13.80
2017-04-14T12:18:50.241Z,13.90
2017-04-14T12:19:49.488Z,14.00
2017-04-14T12:20:48.708Z,14.20
2017-04-14T12:21:48.232Z,14.20
2017-04-14T12:22:47.453Z,14.00
2017-04-14T12:23:46.696Z,14.10
2017-04-14T12:24:45.932Z,14.10
2017-04-14T12:25:45.148Z,14.00
2017-04-14T12:26:44.697Z,13.70
2017-04-14T12:27:44.236Z,13.40
2017-04-14T12:28:43.477Z,13.50
2017-04-14T12:29:42.713Z,13.60
2017-04-14T12:30:42.005Z,13.70
2017-04-14T12:31:41.236Z,13.70
2017-04-14T12:32:40.511Z,13.90
2017-04-14T12:33:40.154Z,14.00
2017-04-14T12:34:39.380Z,13.90
2017-04-14T12:35:38.644Z,13.70
2017-04-14T12:36:38.183Z,13.60
2017-04-14T12:37:37.407Z,13.60
2017-04-14T12:38:36.700Z,13.70
2017-04-14T12:39:36.368Z,14.00
2017-04-14T12:40:35.597Z,14.20
2017-04-14T12:41:34.828Z,14.60
2017-04-14T12:42:34.077Z,14.90
2017-04-14T12:43:33.312Z,14.90
2017-04-14T12:44:32.532Z,15.10
2017-04-14T12:45:32.168Z,15.20
2017-04-14T12:46:31.400Z,15.30
2017-04-14T12:47:30.618Z,15.30
2017-04-14T12:48:29.854Z,15.10
2017-04-14T12:49:29.088Z,15.00
2017-04-14T12:50:28.342Z,14.80
2017-04-14T12:51:27.982Z,14.80
2017-04-14T12:52:28.527Z,14.80
2017-04-14T12:53:27.918Z,14.80
2017-04-14T12:54:27.161Z,14.70
2017-04-14T12:55:26.399Z,14.40
2017-04-14T12:56:25.663Z,14.20
2017-04-14T12:57:25.221Z,14.20
2017-04-14T12:58:24.529Z,14.10
2017-04-14T12:59:24.492Z,14.10